Time;durP1;ratioP1;P1;durP2;ratioP2;P2;SDS_P1;SDS_P2;PMS_P1;PMS_P2;Temp;Humidity;BMP_temperature;BMP_pressure;BME280_temperature;BME280_humidity;BME280_pressure;Samples;Min_cycle;Max_cycle;Signal;HPM_P1;HPM_P2
2022/04/22 00:00:10;;;;;;;32.93;27.23;;;;;;;;;;4972770;28;20264;-40
2022/04/22 00:02:39;;;;;;;30.27;25.33;;;;;;;;;;4971029;28;20181;-39
2022/04/22 00:05:05;;;;;;;37.70;29.33;;;;;;;;;;4978235;28;20180;-40
2022/04/22 00:07:31;;;;;;;42.17;31.90;;;;;;;;;;4988858;28;20731;-40
2022/04/22 00:09:58;;;;;;;33.17;27.43;;;;;;;;;;4975270;28;20281;-38
2022/04/22 00:12:24;;;;;;;38.53;29.60;;;;;;;;;;4973098;28;20348;-41
2022/04/22 00:14:50;;;;;;;33.27;27.30;;;;;;;;;;4976005;28;20493;-38
2022/04/22 00:17:17;;;;;;;35.30;28.27;;;;;;;;;;4972798;28;20850;-39
2022/04/22 00:19:43;;;;;;;40.77;30.37;;;;;;;;;;4989123;28;20456;-40
2022/04/22 00:22:10;;;;;;;37.90;29.03;;;;;;;;;;4975678;28;20654;-41
2022/04/22 00:24:36;;;;;;;44.10;32.43;;;;;;;;;;4978058;28;21025;-42
2022/04/22 00:27:02;;;;;;;33.33;28.20;;;;;;;;;;4974968;28;20668;-37
2022/04/22 00:29:29;;;;;;;35.87;28.33;;;;;;;;;;4979086;28;20432;-41
2022/04/22 00:31:55;;;;;;;33.23;26.33;;;;;;;;;;4978697;28;21136;-39
2022/04/22 00:34:21;;;;;;;30.20;26.03;;;;;;;;;;4979075;28;20423;-37
2022/04/22 00:36:48;;;;;;;34.63;27.27;;;;;;;;;;4975956;28;20811;-38
2022/04/22 00:39:14;;;;;;;44.77;34.07;;;;;;;;;;4990904;28;20695;-37
2022/04/22 00:41:42;;;;;;;41.93;32.70;;;;;;;;;;4976519;28;20954;-39
2022/04/22 00:44:08;;;;;;;38.03;29.50;;;;;;;;;;4993449;28;20820;-38
2022/04/22 00:46:35;;;;;;;32.87;28.00;;;;;;;;;;4974574;28;21269;-36
2022/04/22 00:49:01;;;;;;;35.43;29.23;;;;;;;;;;4971572;28;21663;-37
2022/04/22 00:51:27;;;;;;;44.13;33.60;;;;;;;;;;4972511;28;20868;-37
2022/04/22 00:53:54;;;;;;;43.40;32.90;;;;;;;;;;4975452;28;20729;-40
2022/04/22 00:56:20;;;;;;;30.80;25.87;;;;;;;;;;4969635;28;20688;-37
2022/04/22 00:58:47;;;;;;;37.53;30.23;;;;;;;;;;4972693;28;20430;-36
2022/04/22 01:01:14;;;;;;;39.67;31.37;;;;;;;;;;4970178;28;20443;-37
2022/04/22 01:09:47;;;;;;;39.07;30.53;;;;;;;;;;4973023;28;20953;-37
2022/04/22 01:11:59;;;;;;;37.27;28.70;;;;;;;;;;4969387;28;20529;-41
2022/04/22 01:14:26;;;;;;;28.27;23.90;;;;;;;;;;4973871;28;20423;-37
2022/04/22 01:16:52;;;;;;;32.60;26.77;;;;;;;;;;4968747;28;20945;-39
2022/04/22 01:19:18;;;;;;;40.00;30.73;;;;;;;;;;4971253;28;20420;-38
2022/04/22 01:21:44;;;;;;;31.47;26.17;;;;;;;;;;4971469;28;20478;-36
2022/04/22 01:24:10;;;;;;;36.93;29.53;;;;;;;;;;4968201;28;20431;-38
2022/04/22 01:26:37;;;;;;;37.23;29.03;;;;;;;;;;4973987;28;20433;-40
2022/04/22 01:29:04;;;;;;;33.60;27.50;;;;;;;;;;4970350;28;20427;-39
2022/04/22 01:31:30;;;;;;;42.17;32.63;;;;;;;;;;4970065;28;20193;-39
2022/04/22 01:33:56;;;;;;;35.20;29.27;;;;;;;;;;4973663;28;21079;-37
2022/04/22 01:36:22;;;;;;;31.00;25.30;;;;;;;;;;4972257;28;21046;-39
2022/04/22 01:38:48;;;;;;;29.40;25.30;;;;;;;;;;4971761;28;20852;-40
2022/04/22 01:41:15;;;;;;;43.63;32.77;;;;;;;;;;4973911;28;20542;-37
2022/04/22 01:43:41;;;;;;;43.43;33.63;;;;;;;;;;4968485;28;20458;-38
2022/04/22 01:46:07;;;;;;;40.33;31.73;;;;;;;;;;4969262;28;20578;-41
2022/04/22 01:48:33;;;;;;;41.43;31.93;;;;;;;;;;4973098;28;20471;-41
2022/04/22 01:50:59;;;;;;;48.83;35.17;;;;;;;;;;4969698;28;21119;-39
2022/04/22 01:53:25;;;;;;;42.03;32.50;;;;;;;;;;4969628;28;20587;-37
2022/04/22 01:55:51;;;;;;;35.90;29.47;;;;;;;;;;4969231;28;20623;-39
2022/04/22 01:58:17;;;;;;;41.00;32.83;;;;;;;;;;4970303;28;20534;-40
2022/04/22 02:00:44;;;;;;;33.07;27.10;;;;;;;;;;4971722;28;20423;-41
2022/04/22 02:03:10;;;;;;;33.40;27.63;;;;;;;;;;4973081;28;20424;-41
2022/04/22 02:05:36;;;;;;;43.13;33.70;;;;;;;;;;4971772;28;20807;-40
2022/04/22 02:08:02;;;;;;;47.77;36.20;;;;;;;;;;4974030;28;20608;-38
2022/04/22 02:10:28;;;;;;;36.17;29.70;;;;;;;;;;4973721;28;21123;-36
2022/04/22 02:12:54;;;;;;;35.90;29.80;;;;;;;;;;4976417;28;20618;-39
2022/04/22 02:15:24;;;;;;;40.90;32.63;;;;;;;;;;4977935;28;20447;-42
2022/04/22 02:17:54;;;;;;;32.40;27.53;;;;;;;;;;4983657;28;21189;-42
2022/04/22 02:20:22;;;;;;;31.97;26.90;;;;;;;;;;4978324;28;20423;-40
2022/04/22 02:22:48;;;;;;;31.70;26.90;;;;;;;;;;4982306;28;20460;-42
2022/04/22 02:25:15;;;;;;;32.57;26.63;;;;;;;;;;4977556;28;20612;-40
2022/04/22 02:30:28;;;;;;;38.40;29.77;;;;;;;;;;4977767;28;20711;-42
2022/04/22 02:32:54;;;;;;;34.53;27.40;;;;;;;;;;4981486;28;20588;-42
2022/04/22 02:35:21;;;;;;;48.27;33.97;;;;;;;;;;4973856;28;21018;-41
2022/04/22 02:37:48;;;;;;;45.27;31.90;;;;;;;;;;4972485;28;20749;-39
2022/04/22 02:45:26;;;;;;;46.20;33.53;;;;;;;;;;4972103;28;21220;-38
2022/04/22 02:45:45;;;;;;;36.97;28.30;;;;;;;;;;4975250;28;20998;-39
2022/04/22 02:48:11;;;;;;;34.70;28.00;;;;;;;;;;4977672;28;20415;-40
2022/04/22 02:50:37;;;;;;;34.63;29.00;;;;;;;;;;4976026;28;20415;-39
2022/04/22 02:53:03;;;;;;;51.77;37.63;;;;;;;;;;4976567;28;20424;-40
2022/04/22 02:55:30;;;;;;;48.63;35.60;;;;;;;;;;4974489;28;20464;-38
2022/04/22 02:57:59;;;;;;;45.53;35.07;;;;;;;;;;4971870;28;20888;-39
2022/04/22 03:00:25;;;;;;;65.67;41.60;;;;;;;;;;4979344;28;20482;-41
2022/04/22 03:02:52;;;;;;;46.97;35.20;;;;;;;;;;4980769;28;21396;-40
2022/04/22 03:05:19;;;;;;;46.87;35.33;;;;;;;;;;5003677;28;20522;-39
2022/04/22 03:07:45;;;;;;;41.87;32.73;;;;;;;;;;4971776;28;20482;-40
2022/04/22 03:10:11;;;;;;;43.77;33.57;;;;;;;;;;4978075;28;21158;-41
2022/04/22 03:12:37;;;;;;;44.57;33.27;;;;;;;;;;4973917;28;21490;-37
2022/04/22 03:15:03;;;;;;;36.73;29.13;;;;;;;;;;4974208;28;20900;-38
2022/04/22 03:17:30;;;;;;;38.97;28.13;;;;;;;;;;4970567;28;20986;-38
2022/04/22 03:19:59;;;;;;;30.60;24.50;;;;;;;;;;4972932;28;20823;-37
2022/04/22 03:22:26;;;;;;;33.97;25.97;;;;;;;;;;4976814;28;20427;-39
2022/04/22 03:24:52;;;;;;;35.07;27.27;;;;;;;;;;4969075;28;20652;-39
2022/04/22 03:27:18;;;;;;;46.70;33.13;;;;;;;;;;4970621;28;20888;-39
2022/04/22 03:29:48;;;;;;;42.43;30.47;;;;;;;;;;5000618;28;20424;-38
2022/04/22 03:32:14;;;;;;;41.50;31.10;;;;;;;;;;4974742;28;21012;-38
2022/04/22 03:34:40;;;;;;;36.03;29.07;;;;;;;;;;4978001;28;20533;-40
2022/04/22 03:37:06;;;;;;;42.03;31.43;;;;;;;;;;4974408;28;20515;-39
2022/04/22 03:39:32;;;;;;;35.27;28.20;;;;;;;;;;4966121;28;21072;-37
2022/04/22 03:41:59;;;;;;;49.57;34.37;;;;;;;;;;4971486;28;20419;-39
2022/04/22 03:44:26;;;;;;;51.67;35.33;;;;;;;;;;4970757;28;20201;-40
2022/04/22 03:46:52;;;;;;;44.03;32.77;;;;;;;;;;4972036;28;20413;-36
2022/04/22 03:49:18;;;;;;;47.07;34.93;;;;;;;;;;4976289;28;20971;-40
2022/04/22 03:51:44;;;;;;;55.67;37.27;;;;;;;;;;4976248;28;22348;-38
2022/04/22 03:54:10;;;;;;;52.43;35.70;;;;;;;;;;4972764;28;20549;-38
2022/04/22 03:59:21;;;;;;;43.23;32.87;;;;;;;;;;4972658;28;20474;-39
2022/04/22 04:01:47;;;;;;;58.50;38.87;;;;;;;;;;4968923;28;20416;-36
2022/04/22 04:04:14;;;;;;;51.80;35.77;;;;;;;;;;4973028;28;20434;-37
2022/04/22 04:06:40;;;;;;;59.20;39.37;;;;;;;;;;4974398;28;20421;-37
2022/04/22 04:17:20;;;;;;;39.70;29.23;;;;;;;;;;4975104;28;20951;-41
2022/04/22 04:25:19;;;;;;;40.00;31.00;;;;;;;;;;4971616;28;20424;-38
2022/04/22 04:27:45;;;;;;;39.93;30.30;;;;;;;;;;4974722;28;21498;-41
2022/04/22 04:30:12;;;;;;;43.83;31.67;;;;;;;;;;4970660;28;20415;-41
2022/04/22 04:32:38;;;;;;;55.00;37.57;;;;;;;;;;4970357;28;21513;-41
2022/04/22 04:35:04;;;;;;;46.03;33.90;;;;;;;;;;4971336;28;21424;-39
2022/04/22 04:37:30;;;;;;;54.77;37.47;;;;;;;;;;4973510;28;20448;-40
2022/04/22 04:39:56;;;;;;;54.43;37.20;;;;;;;;;;4969433;28;20671;-40
2022/04/22 04:42:24;;;;;;;42.97;32.27;;;;;;;;;;4969465;28;20690;-41
2022/04/22 04:44:50;;;;;;;37.70;29.13;;;;;;;;;;4971662;28;20683;-37
2022/04/22 04:47:17;;;;;;;43.77;31.03;;;;;;;;;;4971041;28;21033;-39
2022/04/22 04:49:45;;;;;;;53.23;35.90;;;;;;;;;;4972236;28;20723;-40
2022/04/22 04:52:12;;;;;;;40.87;30.20;;;;;;;;;;4971900;28;20173;-39
2022/04/22 04:54:38;;;;;;;44.37;31.83;;;;;;;;;;4971538;28;21009;-38
2022/04/22 04:57:05;;;;;;;42.87;32.77;;;;;;;;;;4970307;28;20424;-40
2022/04/22 04:59:31;;;;;;;55.37;36.33;;;;;;;;;;4970246;28;21320;-39
2022/04/22 05:01:57;;;;;;;47.80;33.53;;;;;;;;;;4974101;28;21664;-39
2022/04/22 05:04:23;;;;;;;41.00;30.20;;;;;;;;;;4973046;28;21143;-40
2022/04/22 05:06:52;;;;;;;52.93;33.50;;;;;;;;;;4970805;28;20536;-39
2022/04/22 05:09:18;;;;;;;48.67;33.00;;;;;;;;;;4971339;28;20428;-40
2022/04/22 05:11:44;;;;;;;34.47;26.23;;;;;;;;;;4972093;28;20368;-39
2022/04/22 05:14:13;;;;;;;42.50;29.77;;;;;;;;;;4975018;28;20894;-38
2022/04/22 05:16:39;;;;;;;41.47;29.03;;;;;;;;;;4971288;28;20189;-39
2022/04/22 05:19:05;;;;;;;30.17;23.07;;;;;;;;;;4971138;28;20416;-40
2022/04/22 05:21:34;;;;;;;43.67;31.63;;;;;;;;;;4997727;28;20438;-40
2022/04/22 05:24:00;;;;;;;29.63;25.07;;;;;;;;;;4973050;28;20247;-41
2022/04/22 05:26:26;;;;;;;29.30;24.10;;;;;;;;;;4977125;28;20884;-42
2022/04/22 05:28:53;;;;;;;42.77;30.53;;;;;;;;;;4971527;28;20619;-40
2022/04/22 05:34:03;;;;;;;38.03;30.43;;;;;;;;;;4969388;28;20435;-39
2022/04/22 05:36:29;;;;;;;47.03;32.00;;;;;;;;;;4973611;28;20834;-40
2022/04/22 05:38:56;;;;;;;45.20;33.07;;;;;;;;;;4973782;28;21005;-41
2022/04/22 05:41:22;;;;;;;32.43;26.93;;;;;;;;;;4972319;28;20892;-40
2022/04/22 05:43:48;;;;;;;35.77;28.97;;;;;;;;;;4972081;28;20818;-38
2022/04/22 05:46:14;;;;;;;53.37;39.23;;;;;;;;;;4974316;28;20786;-39
2022/04/22 05:48:40;;;;;;;57.73;42.40;;;;;;;;;;4975803;28;20192;-36
2022/04/22 05:51:06;;;;;;;47.93;37.07;;;;;;;;;;4972839;28;21137;-38
2022/04/22 05:53:32;;;;;;;48.80;37.37;;;;;;;;;;4976763;28;20427;-38
2022/04/22 05:55:58;;;;;;;43.67;34.83;;;;;;;;;;4978681;28;20452;-41
2022/04/22 05:58:24;;;;;;;62.33;44.20;;;;;;;;;;4979728;28;20415;-41
2022/04/22 06:00:51;;;;;;;63.10;45.70;;;;;;;;;;4979662;28;20814;-38
2022/04/22 06:03:17;;;;;;;56.23;42.73;;;;;;;;;;4979691;28;20427;-40
2022/04/22 06:05:43;;;;;;;70.10;48.40;;;;;;;;;;4975972;28;20708;-41
2022/04/22 06:10:54;;;;;;;56.30;42.73;;;;;;;;;;4981185;28;21351;-39
2022/04/22 06:13:20;;;;;;;59.03;42.77;;;;;;;;;;4979749;28;20463;-41
2022/04/22 06:15:46;;;;;;;54.17;41.73;;;;;;;;;;4978133;28;20456;-40
2022/04/22 06:18:13;;;;;;;57.93;41.43;;;;;;;;;;4979574;28;20188;-41
2022/04/22 06:20:39;;;;;;;47.60;37.40;;;;;;;;;;4979516;28;21219;-37
2022/04/22 06:23:06;;;;;;;56.60;42.93;;;;;;;;;;4978573;28;20510;-39
2022/04/22 06:25:32;;;;;;;63.43;46.07;;;;;;;;;;4979835;28;20710;-40
2022/04/22 06:27:58;;;;;;;47.03;39.03;;;;;;;;;;4979183;28;20195;-38
2022/04/22 06:30:25;;;;;;;49.37;37.73;;;;;;;;;;4981467;28;21006;-39
2022/04/22 06:32:52;;;;;;;60.70;43.83;;;;;;;;;;4977692;28;20691;-40
2022/04/22 06:35:19;;;;;;;59.47;42.43;;;;;;;;;;4977737;28;20568;-40
2022/04/22 06:37:46;;;;;;;50.13;38.43;;;;;;;;;;4976607;28;20791;-40
2022/04/22 06:45:47;;;;;;;62.20;43.03;;;;;;;;;;4983319;28;20219;-41
2022/04/22 06:48:14;;;;;;;66.10;45.23;;;;;;;;;;4982249;28;20185;-38
2022/04/22 06:50:41;;;;;;;55.37;39.33;;;;;;;;;;4983716;28;20443;-38
2022/04/22 06:53:07;;;;;;;62.10;45.60;;;;;;;;;;4979026;28;20931;-40
2022/04/22 06:55:34;;;;;;;54.53;41.37;;;;;;;;;;4979004;28;20681;-42
2022/04/22 06:58:01;;;;;;;64.30;45.87;;;;;;;;;;4976341;28;20517;-38
2022/04/22 07:00:27;;;;;;;66.37;45.83;;;;;;;;;;4977712;28;20435;-40
2022/04/22 07:02:54;;;;;;;63.07;43.77;;;;;;;;;;4980364;28;20878;-38
2022/04/22 07:05:20;;;;;;;51.07;38.93;;;;;;;;;;4976933;28;20769;-40
2022/04/22 07:07:47;;;;;;;56.07;41.47;;;;;;;;;;4978353;28;20441;-40
2022/04/22 07:10:13;;;;;;;63.90;44.77;;;;;;;;;;4973510;28;20442;-40
2022/04/22 07:12:39;;;;;;;46.67;35.37;;;;;;;;;;4979620;28;21179;-41
2022/04/22 07:15:06;;;;;;;58.03;41.03;;;;;;;;;;4976228;28;20476;-40
2022/04/22 07:17:36;;;;;;;61.37;44.33;;;;;;;;;;4979146;28;20884;-41
2022/04/22 07:20:09;;;;;;;64.20;43.83;;;;;;;;;;4977425;28;21114;-42
2022/04/22 07:22:36;;;;;;;51.13;37.50;;;;;;;;;;4969289;28;20275;-42
2022/04/22 07:25:02;;;;;;;68.23;45.37;;;;;;;;;;4974743;28;21370;-39
2022/04/22 07:27:30;;;;;;;63.63;44.40;;;;;;;;;;4976403;28;20173;-40
2022/04/22 07:29:58;;;;;;;63.13;43.87;;;;;;;;;;4977657;28;20557;-38
2022/04/22 07:32:24;;;;;;;58.00;41.40;;;;;;;;;;4973866;28;20733;-40
2022/04/22 07:34:51;;;;;;;65.10;43.63;;;;;;;;;;4973838;28;20431;-40
2022/04/22 07:37:17;;;;;;;66.97;45.30;;;;;;;;;;4978213;28;20761;-39
2022/04/22 07:39:43;;;;;;;56.33;39.73;;;;;;;;;;4970001;28;20424;-36
2022/04/22 07:42:15;;;;;;;65.33;43.47;;;;;;;;;;4976261;28;20648;-39
2022/04/22 07:47:27;;;;;;;69.63;45.63;;;;;;;;;;4977249;28;20926;-39
2022/04/22 07:49:54;;;;;;;76.60;47.13;;;;;;;;;;4974502;28;21034;-38
2022/04/22 07:52:20;;;;;;;69.17;44.03;;;;;;;;;;4976926;28;20506;-41
2022/04/22 07:54:46;;;;;;;63.13;42.43;;;;;;;;;;4978591;28;20808;-40
2022/04/22 07:57:12;;;;;;;65.87;44.13;;;;;;;;;;4976554;28;20778;-38
2022/04/22 07:59:39;;;;;;;68.77;45.07;;;;;;;;;;4979532;28;20650;-39
2022/04/22 08:02:06;;;;;;;74.47;47.23;;;;;;;;;;4975167;28;21242;-40
2022/04/22 08:04:32;;;;;;;72.23;45.53;;;;;;;;;;4977449;28;20435;-38
2022/04/22 08:06:58;;;;;;;61.57;42.67;;;;;;;;;;4977503;28;20272;-41
2022/04/22 08:09:24;;;;;;;67.00;43.47;;;;;;;;;;4972006;28;20241;-41
2022/04/22 08:11:50;;;;;;;61.03;42.27;;;;;;;;;;4976622;28;20180;-40
2022/04/22 08:14:16;;;;;;;76.43;48.17;;;;;;;;;;4979765;28;20291;-40
2022/04/22 08:16:42;;;;;;;72.70;46.57;;;;;;;;;;4974292;28;20200;-41
2022/04/22 08:19:08;;;;;;;64.00;43.83;;;;;;;;;;4977212;28;20423;-38
2022/04/22 08:21:35;;;;;;;70.47;45.87;;;;;;;;;;4977649;28;20423;-41
2022/04/22 08:24:01;;;;;;;69.23;43.13;;;;;;;;;;4969582;28;20511;-40
2022/04/22 08:26:32;;;;;;;59.60;41.37;;;;;;;;;;4976480;28;20486;-40
2022/04/22 08:28:58;;;;;;;74.87;47.27;;;;;;;;;;4980319;28;21234;-40
2022/04/22 08:31:24;;;;;;;64.27;43.03;;;;;;;;;;4974351;28;20653;-39
2022/04/22 08:33:55;;;;;;;71.97;46.63;;;;;;;;;;4972649;28;20419;-40
2022/04/22 08:36:22;;;;;;;69.60;44.40;;;;;;;;;;4976276;28;20459;-41
2022/04/22 08:38:48;;;;;;;73.43;46.83;;;;;;;;;;4975747;28;20871;-41
2022/04/22 08:41:14;;;;;;;71.87;46.67;;;;;;;;;;4974257;28;20425;-40
2022/04/22 08:43:41;;;;;;;70.30;46.57;;;;;;;;;;4971079;28;20174;-41
2022/04/22 08:49:58;;;;;;;75.30;46.87;;;;;;;;;;4976918;28;20570;-39
2022/04/22 08:51:42;;;;;;;62.97;41.63;;;;;;;;;;4971210;28;20728;-41
2022/04/22 08:54:09;;;;;;;63.70;42.73;;;;;;;;;;4973346;28;20616;-40
2022/04/22 08:56:36;;;;;;;61.43;39.37;;;;;;;;;;4976317;28;20184;-40
2022/04/22 08:59:03;;;;;;;55.67;38.37;;;;;;;;;;4968584;28;20987;-40
2022/04/22 09:01:29;;;;;;;64.57;41.87;;;;;;;;;;4974609;28;20178;-41
2022/04/22 09:03:55;;;;;;;60.43;39.93;;;;;;;;;;4972373;28;20497;-39
2022/04/22 09:06:23;;;;;;;67.67;43.73;;;;;;;;;;4965137;28;20182;-38
2022/04/22 09:08:50;;;;;;;58.30;39.77;;;;;;;;;;4977441;28;20434;-39
2022/04/22 09:11:16;;;;;;;49.10;34.83;;;;;;;;;;4978761;28;21041;-41
2022/04/22 09:13:43;;;;;;;63.13;41.30;;;;;;;;;;4975852;28;20353;-39
2022/04/22 09:16:09;;;;;;;68.90;43.53;;;;;;;;;;4980210;28;20780;-39
2022/04/22 09:18:39;;;;;;;59.90;40.13;;;;;;;;;;4980782;28;20356;-40
2022/04/22 09:21:07;;;;;;;79.17;50.00;;;;;;;;;;4974890;28;20989;-41
2022/04/22 09:23:36;;;;;;;57.47;40.77;;;;;;;;;;4979375;28;20552;-40
2022/04/22 09:26:05;;;;;;;69.80;45.87;;;;;;;;;;4985324;28;20627;-41
2022/04/22 09:28:32;;;;;;;83.27;51.17;;;;;;;;;;4980900;28;20423;-40
2022/04/22 09:30:59;;;;;;;70.87;45.43;;;;;;;;;;4980233;28;20689;-38
2022/04/22 09:33:25;;;;;;;67.40;44.77;;;;;;;;;;4982845;28;20189;-41
2022/04/22 09:44:24;;;;;;;83.50;51.07;;;;;;;;;;4981774;28;20757;-38
2022/04/22 09:47:09;;;;;;;78.33;49.93;;;;;;;;;;4978618;28;20185;-39
2022/04/22 09:49:39;;;;;;;73.97;46.77;;;;;;;;;;4978575;28;20527;-42
2022/04/22 09:52:05;;;;;;;72.47;47.57;;;;;;;;;;4975328;28;20766;-37
2022/04/22 09:54:31;;;;;;;69.90;45.60;;;;;;;;;;4981437;28;20177;-40
2022/04/22 09:57:00;;;;;;;73.80;45.83;;;;;;;;;;4979615;28;20204;-41
2022/04/22 09:59:27;;;;;;;74.30;46.50;;;;;;;;;;4978967;28;20510;-40
2022/04/22 10:01:53;;;;;;;64.53;43.30;;;;;;;;;;4980855;28;20266;-41
2022/04/22 10:04:20;;;;;;;73.13;45.83;;;;;;;;;;4980692;28;20287;-42
2022/04/22 10:06:47;;;;;;;74.37;47.63;;;;;;;;;;4982673;28;20190;-39
2022/04/22 10:09:14;;;;;;;68.20;45.23;;;;;;;;;;4980745;28;20979;-40
2022/04/22 10:11:45;;;;;;;74.30;47.90;;;;;;;;;;4979419;28;20408;-39
2022/04/22 10:14:12;;;;;;;75.33;47.20;;;;;;;;;;4979680;28;20178;-40
2022/04/22 10:16:38;;;;;;;65.23;46.47;;;;;;;;;;4979592;28;20193;-40
2022/04/22 10:19:08;;;;;;;87.80;54.30;;;;;;;;;;4976619;28;20258;-40
2022/04/22 10:21:34;;;;;;;84.27;53.00;;;;;;;;;;4980823;28;20161;-42
2022/04/22 10:24:00;;;;;;;72.77;50.03;;;;;;;;;;4979162;28;20564;-41
2022/04/22 10:26:27;;;;;;;100.77;58.50;;;;;;;;;;4977433;28;20278;-40
2022/04/22 10:28:53;;;;;;;87.10;53.90;;;;;;;;;;4978697;28;20689;-40
2022/04/22 10:31:21;;;;;;;86.13;55.33;;;;;;;;;;4981187;28;20181;-38
2022/04/22 10:33:48;;;;;;;96.77;57.03;;;;;;;;;;4980848;28;20173;-40
2022/04/22 10:36:18;;;;;;;96.83;56.90;;;;;;;;;;4977257;28;20319;-40
2022/04/22 10:38:48;;;;;;;101.17;58.03;;;;;;;;;;4982896;28;20169;-40
2022/04/22 10:41:22;;;;;;;88.23;55.23;;;;;;;;;;4979725;28;20180;-40
2022/04/22 10:47:13;;;;;;;82.03;53.23;;;;;;;;;;5011148;28;20601;-41
2022/04/22 10:49:21;;;;;;;89.87;55.53;;;;;;;;;;4983351;28;20690;-38
2022/04/22 10:52:19;;;;;;;86.73;55.57;;;;;;;;;;4980530;28;20480;-41
2022/04/22 10:54:54;;;;;;;88.43;55.10;;;;;;;;;;4968846;28;20589;-41
2022/04/22 10:57:25;;;;;;;95.53;56.37;;;;;;;;;;4979283;28;20185;-40
2022/04/22 11:00:06;;;;;;;94.73;57.40;;;;;;;;;;4980341;28;20199;-41
2022/04/22 11:02:34;;;;;;;84.53;54.33;;;;;;;;;;4978194;28;20627;-41
2022/04/22 11:05:23;;;;;;;90.80;56.03;;;;;;;;;;4977182;28;20619;-40
2022/04/22 11:08:01;;;;;;;91.80;57.63;;;;;;;;;;4975104;28;20206;-41
2022/04/22 11:10:46;;;;;;;99.27;58.60;;;;;;;;;;4975564;28;20185;-39
2022/04/22 11:13:30;;;;;;;92.17;57.60;;;;;;;;;;4979624;28;20169;-41
2022/04/22 11:16:00;;;;;;;95.40;57.50;;;;;;;;;;4976817;28;20197;-40
2022/04/22 11:18:26;;;;;;;89.93;54.77;;;;;;;;;;4976520;28;20967;-40
2022/04/22 11:20:59;;;;;;;99.43;60.00;;;;;;;;;;4977644;28;20185;-40
2022/04/22 11:23:34;;;;;;;107.37;60.30;;;;;;;;;;4973209;28;20755;-41
2022/04/22 11:26:00;;;;;;;94.87;58.17;;;;;;;;;;4977740;28;20175;-41
2022/04/22 11:28:27;;;;;;;91.43;56.63;;;;;;;;;;4977891;28;20176;-40
2022/04/22 11:30:54;;;;;;;87.30;55.03;;;;;;;;;;4976298;28;20686;-41
2022/04/22 11:33:21;;;;;;;86.67;55.33;;;;;;;;;;4977330;28;20413;-40
2022/04/22 11:35:49;;;;;;;91.20;53.63;;;;;;;;;;4976493;28;20267;-40
2022/04/22 11:38:16;;;;;;;71.57;48.73;;;;;;;;;;4978695;28;20188;-41
2022/04/22 11:40:44;;;;;;;78.83;52.70;;;;;;;;;;4976103;28;20178;-41
2022/04/22 11:43:11;;;;;;;86.67;53.73;;;;;;;;;;4975792;28;20549;-40
2022/04/22 11:45:38;;;;;;;77.73;50.93;;;;;;;;;;4971327;28;20205;-41
2022/04/22 11:48:08;;;;;;;83.17;52.80;;;;;;;;;;4973562;28;20176;-37
2022/04/22 11:50:41;;;;;;;89.23;55.40;;;;;;;;;;4982233;28;20493;-42
2022/04/22 11:53:08;;;;;;;97.10;56.53;;;;;;;;;;4976552;28;20733;-41
2022/04/22 11:55:34;;;;;;;93.33;56.27;;;;;;;;;;4978008;28;20204;-41
2022/04/22 11:58:02;;;;;;;74.97;49.90;;;;;;;;;;4979620;28;20184;-40
2022/04/22 12:05:58;;;;;;;85.40;52.00;;;;;;;;;;4978503;28;20227;-41
2022/04/22 12:08:25;;;;;;;85.40;51.87;;;;;;;;;;4974993;28;20184;-40
2022/04/22 12:10:51;;;;;;;93.83;55.20;;;;;;;;;;4976603;28;20618;-40
2022/04/22 12:13:17;;;;;;;81.17;51.83;;;;;;;;;;4980072;28;20790;-41
2022/04/22 12:15:48;;;;;;;86.27;52.30;;;;;;;;;;4975848;28;20644;-41
2022/04/22 12:18:36;;;;;;;82.33;52.00;;;;;;;;;;4974093;28;20652;-40
2022/04/22 12:21:04;;;;;;;73.90;50.13;;;;;;;;;;4975610;28;20504;-37
2022/04/22 12:23:38;;;;;;;66.97;46.13;;;;;;;;;;4974771;28;20173;-41
2022/04/22 12:26:05;;;;;;;80.27;50.17;;;;;;;;;;4976474;28;20188;-40
2022/04/22 12:28:31;;;;;;;81.77;50.47;;;;;;;;;;4977581;28;20235;-40
2022/04/22 12:30:57;;;;;;;74.80;49.03;;;;;;;;;;4977545;28;20291;-40
2022/04/22 12:33:24;;;;;;;79.20;50.30;;;;;;;;;;4974635;28;20402;-39
2022/04/22 12:36:10;;;;;;;82.97;52.27;;;;;;;;;;4975065;28;20272;-41
2022/04/22 12:38:37;;;;;;;74.60;48.10;;;;;;;;;;4979346;28;20403;-41
2022/04/22 12:41:16;;;;;;;80.20;50.57;;;;;;;;;;4979195;28;20262;-41
2022/04/22 12:43:46;;;;;;;73.47;49.20;;;;;;;;;;4978041;28;20407;-40
2022/04/22 12:52:08;;;;;;;68.53;46.97;;;;;;;;;;4970722;28;20180;-41
2022/04/22 12:54:35;;;;;;;66.40;46.43;;;;;;;;;;4966355;28;20184;-41
2022/04/22 12:57:01;;;;;;;69.73;46.67;;;;;;;;;;4969708;28;20197;-39
2022/04/22 12:59:43;;;;;;;70.47;46.17;;;;;;;;;;4973394;28;20849;-41
2022/04/22 13:02:10;;;;;;;62.37;44.57;;;;;;;;;;4971337;28;20575;-41
2022/04/22 13:05:14;;;;;;;61.67;42.83;;;;;;;;;;4974607;28;20706;-39
2022/04/22 13:07:42;;;;;;;62.33;42.47;;;;;;;;;;4955990;28;20181;-40
2022/04/22 13:10:12;;;;;;;60.13;42.37;;;;;;;;;;4953746;28;20169;-40
2022/04/22 13:12:40;;;;;;;53.80;39.60;;;;;;;;;;4961245;28;20180;-41
2022/04/22 13:15:10;;;;;;;52.70;40.07;;;;;;;;;;4972067;28;20170;-38
2022/04/22 13:17:46;;;;;;;48.87;36.83;;;;;;;;;;4976364;28;20263;-41
2022/04/22 13:20:14;;;;;;;55.80;39.50;;;;;;;;;;4973047;28;20521;-40
2022/04/22 13:22:41;;;;;;;61.73;43.33;;;;;;;;;;4970840;28;20238;-40
2022/04/22 13:25:10;;;;;;;49.23;37.43;;;;;;;;;;4974068;28;20189;-41
2022/04/22 13:27:37;;;;;;;47.57;36.87;;;;;;;;;;5006768;28;20169;-41
2022/04/22 13:30:03;;;;;;;57.40;40.17;;;;;;;;;;4973513;28;20590;-40
2022/04/22 13:32:29;;;;;;;56.73;38.87;;;;;;;;;;4971410;28;20220;-41
2022/04/22 13:34:55;;;;;;;50.87;37.90;;;;;;;;;;4972029;28;20177;-42
2022/04/22 13:37:22;;;;;;;61.87;43.00;;;;;;;;;;4975941;28;20185;-41
2022/04/22 13:39:48;;;;;;;67.07;44.63;;;;;;;;;;4974425;28;20177;-43
2022/04/22 13:42:15;;;;;;;68.30;45.00;;;;;;;;;;4973739;28;21080;-39
2022/04/22 13:52:55;;;;;;;36.07;25.67;;;;;;;;;;4975425;28;20445;-43
2022/04/22 13:55:21;;;;;;;34.17;22.60;;;;;;;;;;4971960;28;20259;-41
2022/04/22 13:57:48;;;;;;;28.23;20.33;;;;;;;;;;4969701;28;20911;-42
2022/04/22 14:00:14;;;;;;;22.40;17.67;;;;;;;;;;4973878;28;20259;-43
2022/04/22 14:02:40;;;;;;;25.73;20.20;;;;;;;;;;4972839;28;20644;-41
2022/04/22 14:05:06;;;;;;;20.23;17.03;;;;;;;;;;4973123;28;21110;-43
2022/04/22 14:07:33;;;;;;;22.57;17.07;;;;;;;;;;4973610;28;20290;-41
2022/04/22 14:09:59;;;;;;;21.37;15.60;;;;;;;;;;4979208;28;20566;-41
2022/04/22 14:12:26;;;;;;;20.60;15.83;;;;;;;;;;4976437;28;20175;-42
2022/04/22 14:14:52;;;;;;;23.47;16.83;;;;;;;;;;4975847;28;20284;-41
2022/04/22 14:17:19;;;;;;;20.00;15.60;;;;;;;;;;4973895;28;20618;-41
2022/04/22 14:19:45;;;;;;;17.40;14.57;;;;;;;;;;4981235;28;20550;-40
2022/04/22 14:22:11;;;;;;;21.87;17.43;;;;;;;;;;4975640;28;20454;-41
2022/04/22 14:24:39;;;;;;;21.40;15.87;;;;;;;;;;4975459;28;20177;-41
2022/04/22 14:27:07;;;;;;;20.87;17.17;;;;;;;;;;4974699;28;20918;-43
2022/04/22 14:29:33;;;;;;;22.10;17.87;;;;;;;;;;4978928;28;20174;-42
2022/04/22 14:32:00;;;;;;;28.17;19.63;;;;;;;;;;4975605;28;20180;-42
2022/04/22 14:34:26;;;;;;;21.43;17.00;;;;;;;;;;4977265;28;20212;-42
2022/04/22 14:36:53;;;;;;;24.13;18.97;;;;;;;;;;4974249;28;20212;-43
2022/04/22 14:39:19;;;;;;;18.33;15.20;;;;;;;;;;4972207;28;20430;-42
2022/04/22 14:41:48;;;;;;;23.43;17.73;;;;;;;;;;4977839;28;20296;-41
2022/04/22 14:44:18;;;;;;;22.80;17.90;;;;;;;;;;4977515;28;20790;-42
2022/04/22 14:46:44;;;;;;;20.50;17.43;;;;;;;;;;4976661;28;20737;-43
2022/04/22 14:49:14;;;;;;;23.63;18.20;;;;;;;;;;4978929;28;20209;-43
2022/04/22 14:51:45;;;;;;;20.33;17.47;;;;;;;;;;4979457;28;20250;-41
2022/04/22 14:54:11;;;;;;;25.20;19.47;;;;;;;;;;4977244;28;20562;-43
2022/04/22 14:56:37;;;;;;;30.10;21.63;;;;;;;;;;4981117;28;20917;-41
2022/04/22 14:59:03;;;;;;;28.60;21.23;;;;;;;;;;4982099;28;20173;-43
2022/04/22 15:01:29;;;;;;;31.30;23.60;;;;;;;;;;4977986;28;20422;-44
2022/04/22 15:03:55;;;;;;;30.90;23.83;;;;;;;;;;4975976;28;20398;-41
2022/04/22 15:06:21;;;;;;;24.60;20.50;;;;;;;;;;4980846;28;20173;-42
2022/04/22 15:08:48;;;;;;;26.00;21.37;;;;;;;;;;4978216;28;20649;-43
2022/04/22 15:11:15;;;;;;;28.80;24.20;;;;;;;;;;4974094;28;20435;-43
2022/04/22 15:13:41;;;;;;;29.67;22.23;;;;;;;;;;4976154;28;20177;-43
2022/04/22 15:16:07;;;;;;;24.47;20.70;;;;;;;;;;4984869;28;20193;-42
2022/04/22 15:24:09;;;;;;;23.07;19.20;;;;;;;;;;4979166;28;20307;-43
2022/04/22 15:26:35;;;;;;;27.67;22.03;;;;;;;;;;4977863;28;20841;-43
2022/04/22 15:29:08;;;;;;;25.30;21.27;;;;;;;;;;4976100;28;20189;-43
2022/04/22 15:31:34;;;;;;;28.17;22.63;;;;;;;;;;4973982;28;21265;-42
2022/04/22 15:34:00;;;;;;;24.00;20.57;;;;;;;;;;4978205;28;20921;-43
2022/04/22 15:36:26;;;;;;;26.13;21.23;;;;;;;;;;4975751;28;20962;-43
2022/04/22 15:38:54;;;;;;;24.30;19.97;;;;;;;;;;4977138;28;20183;-43